HAZ6196 VHHX-RCTP
Flight info
| Callsign | HAZ6196 |
|---|---|
| Flight time | N/A |
| Altitude | 29000 |
| Route | ENVAR M750 TONGA TONGA1A |
| Aircraft | A21N/M-SDE2E3FGHIRWXY/LB1 |
Departure
| Time | 2026-04-28 06:03 |
|---|---|
| Airport | Hong Kong International Airport Kai Tak (VHHX) |
Arrival
| Time | N/A |
|---|---|
| Airport | Taiwan Taoyuan International Airport (RCTP) |
| Time | Latitude | Longitude | Altitude | Speed | Heading |
|---|---|---|---|---|---|
| 2026-04-28 05:30 | 22.32937 | 114.19636 | 37 ft | 0 kts | 314° |
| 2026-04-28 05:52 | 22.32927 | 114.19647 | 38 ft | 2 kts | 314° |
| 2026-04-28 05:53 | 22.32917 | 114.19658 | 38 ft | 2 kts | 314° |
| 2026-04-28 05:53 | 22.32906 | 114.19670 | 38 ft | 2 kts | 314° |
| 2026-04-28 05:53 | 22.32895 | 114.19682 | 38 ft | 2 kts | 314° |
| 2026-04-28 05:53 | 22.32885 | 114.19694 | 38 ft | 2 kts | 313° |
| 2026-04-28 05:54 | 22.32878 | 114.19708 | 38 ft | 2 kts | 277° |
| 2026-04-28 05:54 | 22.32879 | 114.19724 | 38 ft | 2 kts | 251° |
| 2026-04-28 05:54 | 22.32886 | 114.19737 | 38 ft | 2 kts | 224° |
| 2026-04-28 05:54 | 22.32891 | 114.19743 | 38 ft | 0 kts | 218° |
| 2026-04-28 05:58 | 22.32889 | 114.19740 | 37 ft | 0 kts | 220° |
| 2026-04-28 05:58 | 22.32882 | 114.19733 | 37 ft | 1 kts | 223° |
| 2026-04-28 05:59 | 22.32870 | 114.19720 | 37 ft | 2 kts | 224° |
| 2026-04-28 05:59 | 22.32853 | 114.19703 | 37 ft | 3 kts | 223° |
| 2026-04-28 05:59 | 22.32832 | 114.19682 | 37 ft | 4 kts | 223° |
| 2026-04-28 05:59 | 22.32808 | 114.19657 | 37 ft | 5 kts | 224° |
| 2026-04-28 06:00 | 22.32780 | 114.19628 | 37 ft | 5 kts | 223° |
| 2026-04-28 06:00 | 22.32749 | 114.19595 | 37 ft | 6 kts | 223° |
| 2026-04-28 06:00 | 22.32713 | 114.19559 | 37 ft | 7 kts | 223° |
| 2026-04-28 06:00 | 22.32674 | 114.19521 | 37 ft | 7 kts | 223° |
| 2026-04-28 06:01 | 22.32633 | 114.19478 | 37 ft | 8 kts | 224° |
| 2026-04-28 06:01 | 22.32589 | 114.19433 | 37 ft | 9 kts | 223° |
| 2026-04-28 06:01 | 22.32542 | 114.19385 | 37 ft | 9 kts | 224° |
| 2026-04-28 06:01 | 22.32494 | 114.19335 | 37 ft | 8 kts | 213° |
| 2026-04-28 06:02 | 22.32444 | 114.19343 | 37 ft | 6 kts | 138° |
| 2026-04-28 06:02 | 22.32431 | 114.19357 | 37 ft | 0 kts | 134° |
| 2026-04-28 06:03 | 22.32291 | 114.19514 | 37 ft | 65 kts | 134° |
| 2026-04-28 06:03 | 22.31826 | 114.20033 | 38 ft | 127 kts | 134° |
| 2026-04-28 06:03 | 22.31094 | 114.20860 | 113 ft | 169 kts | 133° |
| 2026-04-28 06:03 | 22.30294 | 114.21790 | 701 ft | 169 kts | 133° |
| 2026-04-28 06:04 | 22.29501 | 114.22717 | 1352 ft | 171 kts | 134° |
| 2026-04-28 06:04 | 22.28694 | 114.23647 | 1969 ft | 173 kts | 135° |
| 2026-04-28 06:04 | 22.27819 | 114.24596 | 2278 ft | 186 kts | 136° |
| 2026-04-28 06:04 | 22.26862 | 114.25627 | 2570 ft | 201 kts | 136° |
| 2026-04-28 06:05 | 22.25840 | 114.26741 | 2838 ft | 219 kts | 136° |
| 2026-04-28 06:05 | 22.24719 | 114.27976 | 3113 ft | 238 kts | 136° |
| 2026-04-28 06:05 | 22.23528 | 114.29298 | 3510 ft | 254 kts | 136° |
| 2026-04-28 06:05 | 22.22286 | 114.30679 | 4134 ft | 260 kts | 136° |
| 2026-04-28 06:06 | 22.21012 | 114.32099 | 4838 ft | 263 kts | 136° |
| 2026-04-28 06:06 | 22.19734 | 114.33521 | 5507 ft | 267 kts | 136° |
| 2026-04-28 06:06 | 22.18432 | 114.34970 | 6190 ft | 271 kts | 136° |
| 2026-04-28 06:06 | 22.17124 | 114.36426 | 6716 ft | 275 kts | 136° |
| 2026-04-28 06:07 | 22.15786 | 114.37913 | 6984 ft | 278 kts | 136° |
| 2026-04-28 06:07 | 22.14434 | 114.39416 | 7004 ft | 278 kts | 136° |
| 2026-04-28 06:07 | 22.13082 | 114.40919 | 7000 ft | 278 kts | 136° |
| 2026-04-28 06:07 | 22.11744 | 114.42408 | 7002 ft | 278 kts | 136° |
| 2026-04-28 06:08 | 22.10396 | 114.43906 | 7017 ft | 278 kts | 136° |
| 2026-04-28 06:08 | 22.09035 | 114.45416 | 7013 ft | 278 kts | 136° |
| 2026-04-28 06:08 | 22.07686 | 114.46915 | 7014 ft | 278 kts | 136° |
| 2026-04-28 06:08 | 22.06341 | 114.48406 | 7011 ft | 278 kts | 136° |
| 2026-04-28 06:09 | 22.04994 | 114.49903 | 7004 ft | 278 kts | 136° |
| 2026-04-28 06:09 | 22.03640 | 114.51405 | 7024 ft | 280 kts | 136° |
| 2026-04-28 06:09 | 22.02266 | 114.52927 | 7426 ft | 287 kts | 136° |
| 2026-04-28 06:09 | 22.00889 | 114.54453 | 8200 ft | 287 kts | 137° |
| 2026-04-28 06:10 | 21.99485 | 114.56009 | 8855 ft | 291 kts | 136° |
| 2026-04-28 06:10 | 21.98071 | 114.57575 | 9441 ft | 296 kts | 137° |
| 2026-04-28 06:10 | 21.96620 | 114.59180 | 10031 ft | 301 kts | 137° |
| 2026-04-28 06:10 | 21.95156 | 114.60800 | 10509 ft | 309 kts | 137° |
| 2026-04-28 06:11 | 21.93605 | 114.62515 | 10789 ft | 325 kts | 137° |
| 2026-04-28 06:11 | 21.92010 | 114.64274 | 11054 ft | 340 kts | 137° |
| 2026-04-28 06:11 | 21.90311 | 114.66152 | 11314 ft | 355 kts | 137° |
| 2026-04-28 06:11 | 21.88645 | 114.68188 | 11539 ft | 373 kts | 126° |
| 2026-04-28 06:12 | 21.87622 | 114.70830 | 11815 ft | 390 kts | 103° |
| 2026-04-28 06:12 | 21.87511 | 114.73743 | 12335 ft | 395 kts | 87° |
| 2026-04-28 06:12 | 21.87692 | 114.76691 | 12916 ft | 396 kts | 87° |
| 2026-04-28 06:12 | 21.87873 | 114.79636 | 13417 ft | 400 kts | 87° |
| 2026-04-28 06:13 | 21.88044 | 114.82616 | 13889 ft | 404 kts | 88° |
| 2026-04-28 06:13 | 21.88208 | 114.85647 | 14354 ft | 407 kts | 88° |
| 2026-04-28 06:13 | 21.88368 | 114.88731 | 14798 ft | 411 kts | 88° |
| 2026-04-28 06:13 | 21.88502 | 114.91351 | 15190 ft | 414 kts | 88° |
| 2026-04-28 06:14 | 21.88593 | 114.93174 | 15473 ft | 415 kts | 88° |
| 2026-04-28 06:14 | 21.88609 | 114.93498 | 15523 ft | 415 kts | 88° |